Idlewild, Tennessee
Current Conditions -  °F | °C
As of 6:15 AM on Monday 22 Dec 2014 (Local Time) from KUCY Reporting Station
Overcast Overcast  
Wind Chill: 41°   Ceiling: 900
Heat Index: 45°   Visibility: 9mi
Dew Point: 43°   Wind: 7mph
Humidity: 93%   Direction: 130°SE
Pressure: 29.86"   Gusts: NA
Location:  36.02°N, 88.8°W
Report Text: KUCY 221215Z AUTO 13006KT 9SM OVC009 07/06 A2986 RMK
Loading
Personal Weather Stations






























Interactive Weather Map New forecast layout! Learn more

10-Day Weather Forecast

Advertisements
Track Severe Weather on mobile